Time;durP1;ratioP1;P1;durP2;ratioP2;P2;SDS_P1;SDS_P2;PMS_P1;PMS_P2;Temp;Humidity;BMP_temperature;BMP_pressure;BME280_temperature;BME280_humidity;BME280_pressure;Samples;Min_cycle;Max_cycle;Signal;HPM_P1;HPM_P2
2021/08/02 00:01:35;;;;;;;1.70;1.60;;;24.90;53.30;;;;;;6174335;23;20367;-83
2021/08/02 00:04:09;;;;;;;1.70;1.60;;;24.80;53.30;;;;;;6174642;23;20383;-83
2021/08/02 00:07:05;;;;;;;2.00;1.80;;;24.80;53.30;;;;;;6149379;23;20438;-83
2021/08/02 00:09:43;;;;;;;2.00;1.73;;;24.90;53.30;;;;;;6141951;23;20386;-82
2021/08/02 00:12:16;;;;;;;1.70;1.60;;;24.90;53.30;;;;;;6149390;23;20462;-83
2021/08/02 00:14:46;;;;;;;1.90;1.70;;;24.90;53.30;;;;;;6174296;23;20415;-82
2021/08/02 00:17:13;;;;;;;2.77;1.80;;;24.90;53.30;;;;;;6148982;23;20483;-82
2021/08/02 00:19:45;;;;;;;1.80;1.60;;;24.90;53.30;;;;;;6124893;23;20593;-82
2021/08/02 00:22:18;;;;;;;1.70;1.60;;;24.90;53.20;;;;;;6150190;23;20392;-82
2021/08/02 00:24:46;;;;;;;1.97;1.77;;;24.90;53.20;;;;;;6175017;23;20368;-81
2021/08/02 00:27:19;;;;;;;2.37;1.80;;;24.90;53.20;;;;;;6128933;23;20555;-81
2021/08/02 00:29:51;;;;;;;1.60;1.50;;;24.90;53.30;;;;;;6234875;23;20381;-82
2021/08/02 00:32:17;;;;;;;2.37;2.17;;;24.90;53.30;;;;;;6265909;23;20382;-82
2021/08/02 00:34:44;;;;;;;2.13;1.93;;;24.90;53.20;;;;;;6239987;23;20410;-82
2021/08/02 00:37:21;;;;;;;2.10;1.90;;;24.90;53.20;;;;;;6239321;23;20385;-82
2021/08/02 00:40:24;;;;;;;2.10;1.80;;;24.90;53.20;;;;;;6239583;23;20370;-82
2021/08/02 00:43:06;;;;;;;2.50;2.00;;;24.90;53.20;;;;;;6266098;23;20365;-82
2021/08/02 00:45:47;;;;;;;2.83;1.63;;;24.90;53.20;;;;;;6267336;23;20431;-82
2021/08/02 00:48:18;;;;;;;2.27;2.07;;;24.90;53.30;;;;;;6265798;23;20373;-82
2021/08/02 00:50:50;;;;;;;2.80;1.70;;;24.90;53.30;;;;;;6266706;23;20397;-82
2021/08/02 00:53:22;;;;;;;2.47;2.00;;;24.90;53.30;;;;;;6240316;23;20378;-82
2021/08/02 00:56:01;;;;;;;1.67;1.50;;;24.90;53.30;;;;;;6239962;23;20389;-82
2021/08/02 00:58:31;;;;;;;4.03;1.80;;;24.90;53.30;;;;;;6240396;23;20373;-82
2021/08/02 01:00:57;;;;;;;2.67;1.63;;;24.90;53.30;;;;;;6239134;23;20381;-82
2021/08/02 01:03:34;;;;;;;2.07;1.90;;;24.90;53.30;;;;;;6239886;23;20378;-82
2021/08/02 01:06:07;;;;;;;3.13;1.97;;;24.90;53.30;;;;;;6240064;23;20424;-82
2021/08/02 01:08:44;;;;;;;2.17;1.97;;;24.90;53.30;;;;;;6215041;23;20392;-82
2021/08/02 01:11:16;;;;;;;1.73;1.60;;;24.90;53.30;;;;;;6239720;23;20375;-82
2021/08/02 01:13:50;;;;;;;2.10;1.63;;;24.90;53.30;;;;;;6217389;23;20480;-82
2021/08/02 01:16:18;;;;;;;2.00;1.80;;;24.90;53.30;;;;;;6241322;23;20381;-82
2021/08/02 01:18:52;;;;;;;2.27;2.07;;;24.90;53.30;;;;;;6268038;23;20425;-82
2021/08/02 01:21:20;;;;;;;1.50;1.40;;;24.90;53.30;;;;;;6268148;23;20377;-83
2021/08/02 01:23:51;;;;;;;2.20;2.00;;;24.90;53.30;;;;;;6267923;23;20384;-83
2021/08/02 01:26:44;;;;;;;2.00;1.80;;;24.90;53.30;;;;;;6241996;23;20562;-82
2021/08/02 01:29:51;;;;;;;3.23;1.87;;;24.90;53.40;;;;;;6267868;23;20461;-82
2021/08/02 01:32:21;;;;;;;2.30;1.60;;;24.80;53.30;;;;;;6239473;23;20384;-82
2021/08/02 01:34:48;;;;;;;1.97;1.77;;;24.80;53.40;;;;;;6241990;23;20370;-83
2021/08/02 01:37:18;;;;;;;3.00;1.80;;;24.80;53.30;;;;;;6239562;23;20405;-82
2021/08/02 01:39:55;;;;;;;3.07;1.87;;;24.90;53.40;;;;;;6268597;23;20433;-82
2021/08/02 01:42:27;;;;;;;2.00;1.90;;;24.90;53.30;;;;;;6242280;23;20377;-83
2021/08/02 01:44:59;;;;;;;1.50;1.40;;;24.90;53.30;;;;;;6242187;23;20377;-83
2021/08/02 01:47:36;;;;;;;2.03;1.57;;;24.90;53.30;;;;;;6242266;23;20409;-83
2021/08/02 01:50:05;;;;;;;2.17;1.57;;;24.90;53.20;;;;;;6242260;23;20382;-82
2021/08/02 01:52:59;;;;;;;1.60;1.50;;;24.90;53.30;;;;;;6268550;23;20370;-82
2021/08/02 01:55:31;;;;;;;1.83;1.67;;;24.90;53.30;;;;;;6248990;23;20404;-82
2021/08/02 01:58:11;;;;;;;5.73;1.90;;;24.90;53.40;;;;;;6244045;23;20370;-82
2021/08/02 02:00:43;;;;;;;2.00;1.70;;;24.90;53.30;;;;;;6267993;23;20381;-82
2021/08/02 02:03:20;;;;;;;2.00;1.90;;;24.90;53.30;;;;;;6243042;23;20392;-82
2021/08/02 02:05:58;;;;;;;2.23;1.87;;;24.90;53.30;;;;;;6269017;23;20431;-82
2021/08/02 02:08:32;;;;;;;2.67;1.80;;;24.90;53.20;;;;;;6217016;23;20391;-83
2021/08/02 02:11:04;;;;;;;2.10;1.90;;;24.90;53.20;;;;;;6267783;23;20369;-83
2021/08/02 02:13:35;;;;;;;2.20;1.90;;;24.90;53.20;;;;;;6240955;23;20472;-83
2021/08/02 02:16:03;;;;;;;1.87;1.70;;;24.90;53.20;;;;;;6240098;23;20381;-84
2021/08/02 02:18:34;;;;;;;2.10;1.80;;;24.90;53.20;;;;;;6269071;23;20373;-84
2021/08/02 02:21:02;;;;;;;1.83;1.63;;;24.90;53.70;;;;;;6269256;23;20365;-83
2021/08/02 02:23:30;;;;;;;3.00;1.90;;;24.90;53.10;;;;;;6269978;23;20427;-83
2021/08/02 02:25:57;;;;;;;1.90;1.70;;;24.90;53.10;;;;;;6243316;23;20457;-83
2021/08/02 02:28:24;;;;;;;2.53;2.33;;;24.90;53.10;;;;;;6241403;23;20393;-83
2021/08/02 02:30:56;;;;;;;1.70;1.60;;;24.90;53.00;;;;;;6241238;23;20385;-84
2021/08/02 02:33:28;;;;;;;1.80;1.60;;;24.90;53.10;;;;;;6241101;23;20378;-83
2021/08/02 02:35:57;;;;;;;1.80;1.50;;;24.90;53.00;;;;;;6241370;23;20383;-83
2021/08/02 02:38:24;;;;;;;2.87;1.87;;;24.90;53.00;;;;;;6238238;23;20378;-84
2021/08/02 02:40:53;;;;;;;1.70;1.60;;;24.90;53.00;;;;;;6265848;23;20366;-84
2021/08/02 02:43:24;;;;;;;2.17;1.43;;;24.90;53.00;;;;;;6263883;23;20381;-84
2021/08/02 02:45:51;;;;;;;2.83;1.53;;;24.90;52.80;;;;;;6237383;23;20421;-83
2021/08/02 02:48:21;;;;;;;2.10;1.90;;;24.90;52.90;;;;;;6238687;23;20382;-83
2021/08/02 02:50:52;;;;;;;2.30;1.40;;;24.90;53.00;;;;;;6265761;23;20389;-83
2021/08/02 02:53:22;;;;;;;3.93;1.90;;;24.90;52.90;;;;;;6266599;23;20370;-83
2021/08/02 02:55:51;;;;;;;2.00;1.77;;;24.80;52.70;;;;;;6241162;23;20381;-83
2021/08/02 02:58:54;;;;;;;1.57;1.47;;;24.80;52.80;;;;;;6241234;23;20413;-82
2021/08/02 03:01:37;;;;;;;1.90;1.70;;;24.90;52.80;;;;;;6240940;23;20419;-82
2021/08/02 03:04:10;;;;;;;1.60;1.50;;;24.80;52.80;;;;;;6235413;23;20384;-82
2021/08/02 03:06:37;;;;;;;1.90;1.80;;;24.80;52.80;;;;;;6260005;23;20412;-82
2021/08/02 03:09:05;;;;;;;1.60;1.47;;;24.80;52.80;;;;;;6259360;23;20707;-82
2021/08/02 03:11:32;;;;;;;1.50;1.40;;;24.80;52.80;;;;;;6231285;23;20715;-82
2021/08/02 03:13:57;;;;;;;1.97;1.70;;;24.80;52.80;;;;;;6231454;23;20387;-82
2021/08/02 03:16:24;;;;;;;1.90;1.57;;;24.80;52.80;;;;;;6232790;23;20388;-82
2021/08/02 03:18:51;;;;;;;1.70;1.47;;;24.90;52.90;;;;;;6232047;23;20444;-82
2021/08/02 03:21:18;;;;;;;2.43;1.70;;;24.90;52.80;;;;;;6232504;23;20739;-82
2021/08/02 03:24:17;;;;;;;1.60;1.40;;;24.90;52.80;;;;;;6233302;23;20382;-82
2021/08/02 03:27:21;;;;;;;1.70;1.60;;;24.90;52.70;;;;;;6233329;23;20508;-82
2021/08/02 03:29:50;;;;;;;1.90;1.80;;;24.80;52.80;;;;;;6234175;23;20377;-82
2021/08/02 03:32:19;;;;;;;2.13;1.53;;;24.80;52.70;;;;;;6235531;23;20380;-82
2021/08/02 03:34:51;;;;;;;2.13;1.93;;;24.80;52.70;;;;;;6235956;23;20381;-82
2021/08/02 03:37:25;;;;;;;1.40;1.30;;;24.80;52.80;;;;;;6236864;23;20413;-84
2021/08/02 03:40:00;;;;;;;1.90;1.50;;;24.80;52.80;;;;;;6259799;23;20369;-83
2021/08/02 03:42:36;;;;;;;1.50;1.40;;;24.80;52.90;;;;;;6258566;23;20373;-84
2021/08/02 03:45:04;;;;;;;1.70;1.57;;;24.80;52.70;;;;;;6233291;23;20415;-83
2021/08/02 03:47:41;;;;;;;1.60;1.50;;;24.80;52.70;;;;;;6207742;23;20393;-83
2021/08/02 03:50:13;;;;;;;1.33;1.20;;;24.80;52.70;;;;;;6232768;23;20373;-83
2021/08/02 03:52:46;;;;;;;1.50;1.40;;;24.80;52.70;;;;;;6233074;23;20420;-83
2021/08/02 03:55:14;;;;;;;1.83;1.50;;;24.80;52.70;;;;;;6233495;23;20369;-83
2021/08/02 03:57:41;;;;;;;1.80;1.37;;;24.80;52.60;;;;;;6232098;23;20380;-83
2021/08/02 04:00:15;;;;;;;1.40;1.30;;;24.80;52.60;;;;;;6232655;23;20390;-83
2021/08/02 04:02:41;;;;;;;1.47;1.27;;;24.80;52.50;;;;;;6263355;23;20373;-81
2021/08/02 04:05:09;;;;;;;1.80;1.37;;;24.80;52.50;;;;;;6239924;23;20388;-81
2021/08/02 04:08:02;;;;;;;;;;;;;;;;;;;;;
2021/08/02 04:10:30;;;;;;;1.40;1.30;;;24.80;52.50;;;;;;6266863;23;20369;-81
2021/08/02 04:13:22;;;;;;;1.80;1.40;;;24.80;52.60;;;;;;6240746;23;20374;-82
2021/08/02 04:15:49;;;;;;;2.10;1.80;;;24.80;52.40;;;;;;6255217;23;20369;-81
2021/08/02 04:18:16;;;;;;;1.70;1.60;;;24.80;52.50;;;;;;6235822;23;20389;-81
2021/08/02 04:20:43;;;;;;;2.20;1.43;;;24.80;52.50;;;;;;6236751;23;20381;-81
2021/08/02 04:23:10;;;;;;;1.30;1.20;;;24.80;52.40;;;;;;6264789;23;20369;-82
2021/08/02 04:25:36;;;;;;;1.40;1.30;;;24.80;52.50;;;;;;6266536;23;20449;-82
2021/08/02 04:28:02;;;;;;;1.60;1.37;;;24.80;52.30;;;;;;6266567;23;20879;-82
2021/08/02 04:30:31;;;;;;;1.80;1.40;;;24.80;52.50;;;;;;6240343;23;20841;-82
2021/08/02 04:32:57;;;;;;;1.57;1.40;;;24.80;52.40;;;;;;6239442;23;20146;-82
2021/08/02 04:35:23;;;;;;;1.50;1.40;;;24.70;52.50;;;;;;6266355;23;20356;-82
2021/08/02 04:37:49;;;;;;;1.37;1.10;;;24.70;52.50;;;;;;6240296;23;20385;-83
2021/08/02 04:40:22;;;;;;;2.37;1.50;;;24.70;52.50;;;;;;6239615;23;20385;-82
2021/08/02 04:42:48;;;;;;;2.00;1.80;;;24.70;52.60;;;;;;6216767;23;20382;-82
2021/08/02 04:45:15;;;;;;;1.33;1.20;;;24.80;52.60;;;;;;6239843;23;20384;-82
2021/08/02 04:47:40;;;;;;;2.50;1.40;;;24.80;52.60;;;;;;6268828;23;20357;-82
2021/08/02 04:50:07;;;;;;;2.47;1.60;;;24.80;52.60;;;;;;6242130;23;20388;-82
2021/08/02 04:52:42;;;;;;;1.47;1.37;;;24.80;52.50;;;;;;6238070;23;20158;-82
2021/08/02 04:55:11;;;;;;;2.47;1.47;;;24.80;52.50;;;;;;6263664;23;20373;-82
2021/08/02 04:57:38;;;;;;;1.60;1.30;;;24.80;52.50;;;;;;6236808;23;20430;-81
2021/08/02 05:00:06;;;;;;;1.30;1.20;;;24.90;52.50;;;;;;6241456;23;20392;-82
2021/08/02 05:02:32;;;;;;;2.00;1.60;;;24.90;52.50;;;;;;6241462;23;20444;-82
2021/08/02 05:05:01;;;;;;;1.10;1.00;;;24.90;52.50;;;;;;6241699;23;20385;-82
2021/08/02 05:07:27;;;;;;;2.40;1.20;;;24.90;52.50;;;;;;6241228;23;20451;-82
2021/08/02 05:09:53;;;;;;;1.30;1.07;;;24.90;52.40;;;;;;6242637;23;20407;-82
2021/08/02 05:12:19;;;;;;;2.70;1.67;;;25.00;52.50;;;;;;6242834;23;20407;-82
2021/08/02 05:14:45;;;;;;;2.43;1.40;;;25.00;52.40;;;;;;6267961;23;20380;-82
2021/08/02 05:17:11;;;;;;;1.73;1.40;;;25.00;52.40;;;;;;6268067;23;20369;-82
2021/08/02 05:22:59;;;;;;;1.50;1.40;;;25.00;52.30;;;;;;6263383;23;20153;-82
2021/08/02 05:25:25;;;;;;;1.53;1.37;;;25.00;52.20;;;;;;6235635;23;20393;-82
2021/08/02 05:27:52;;;;;;;1.60;1.30;;;25.00;52.30;;;;;;6235236;23;20157;-82
2021/08/02 05:30:19;;;;;;;2.00;1.47;;;25.00;52.40;;;;;;6235644;23;20463;-82
2021/08/02 05:32:45;;;;;;;1.37;1.27;;;25.00;52.30;;;;;;6234662;23;20381;-82
2021/08/02 05:35:13;;;;;;;1.60;1.30;;;25.00;52.20;;;;;;6235599;23;20385;-81
2021/08/02 05:37:42;;;;;;;2.40;1.40;;;25.00;52.30;;;;;;6235792;23;20212;-81
2021/08/02 05:40:09;;;;;;;1.20;1.00;;;25.00;52.30;;;;;;6262121;23;20433;-81
2021/08/02 05:42:35;;;;;;;2.20;1.50;;;25.00;52.20;;;;;;6234890;23;20381;-81
2021/08/02 05:45:03;;;;;;;4.07;1.63;;;25.00;52.30;;;;;;6236028;23;20403;-83
2021/08/02 05:47:30;;;;;;;1.40;1.13;;;25.00;52.20;;;;;;6241830;23;20432;-82
2021/08/02 05:49:56;;;;;;;1.73;1.53;;;25.00;52.20;;;;;;6233341;23;20377;-81
2021/08/02 05:59:17;;;;;;;1.70;1.40;;;25.10;52.30;;;;;;6037546;23;20489;-82
2021/08/02 06:01:43;;;;;;;2.67;1.43;;;25.00;52.30;;;;;;6210549;23;20377;-81
2021/08/02 06:04:14;;;;;;;1.50;1.40;;;25.10;52.40;;;;;;6234318;23;20161;-81
2021/08/02 06:06:40;;;;;;;2.17;1.43;;;25.10;52.30;;;;;;6230863;23;20189;-82
2021/08/02 06:09:10;;;;;;;1.60;1.43;;;25.00;52.20;;;;;;6261496;23;20373;-81
2021/08/02 06:11:44;;;;;;;2.03;1.50;;;25.10;52.30;;;;;;6237682;23;20373;-81
2021/08/02 06:14:38;;;;;;;1.47;1.20;;;25.10;52.30;;;;;;6237966;23;20385;-83
2021/08/02 06:17:04;;;;;;;1.50;1.27;;;25.10;52.30;;;;;;6237479;23;20423;-83
2021/08/02 06:22:42;;;;;;;2.10;1.53;;;25.10;52.40;;;;;;6110084;23;20392;-84
2021/08/02 06:25:12;;;;;;;3.43;1.40;;;25.00;52.30;;;;;;6110361;23;20887;-85
2021/08/02 06:27:44;;;;;;;1.70;1.60;;;25.10;52.40;;;;;;6111254;23;20437;-86
2021/08/02 06:30:26;;;;;;;3.10;1.80;;;25.00;52.30;;;;;;6111731;23;20370;-86
2021/08/02 06:39:55;;;;;;;3.17;1.70;;;25.00;52.50;;;;;;6059346;23;20402;-86
2021/08/02 09:07:40;;;;;;;1.90;1.50;;;25.20;53.00;;;;;;6226237;22;20427;31
2021/08/02 10:47:44;;;;;;;2.77;1.80;;;25.30;53.10;;;;;;6267704;23;20417;-81
2021/08/02 10:50:11;;;;;;;7.10;3.30;;;25.30;53.10;;;;;;6259522;23;20373;-83
2021/08/02 10:52:37;;;;;;;5.17;3.70;;;25.20;53.20;;;;;;6261296;23;20365;-82
2021/08/02 10:55:26;;;;;;;9.77;4.50;;;25.30;53.20;;;;;;6234654;23;20380;-83
2021/08/02 10:57:59;;;;;;;6.27;4.10;;;25.20;53.00;;;;;;6259952;23;20150;-82
2021/08/02 11:00:28;;;;;;;12.40;5.03;;;25.20;52.80;;;;;;6260679;23;20843;-83
2021/08/02 11:03:14;;;;;;;10.23;4.27;;;25.20;52.70;;;;;;6260090;23;20377;-84
2021/08/02 11:05:54;;;;;;;8.77;4.00;;;25.20;52.70;;;;;;6266843;23;20428;-81
2021/08/02 11:08:28;;;;;;;8.27;3.77;;;25.20;52.60;;;;;;6268215;23;20381;-81
2021/08/02 11:11:19;;;;;;;7.73;3.97;;;25.20;52.70;;;;;;6268948;23;20354;-81
2021/08/02 11:13:46;;;;;;;6.37;3.30;;;25.20;52.60;;;;;;6267744;23;20350;-81
2021/08/02 11:16:16;;;;;;;12.77;4.23;;;25.20;52.60;;;;;;6242926;23;20412;-81
2021/08/02 11:18:46;;;;;;;7.37;4.30;;;25.10;52.50;;;;;;6267423;23;20381;-80
2021/08/02 12:25:53;;;;;;;2.70;1.77;;;25.20;53.20;;;;;;6255818;22;20440;-80
2021/08/02 14:00:33;;;;;;;1.67;1.33;;;25.10;53.20;;;;;;6144672;23;20400;-83
2021/08/02 14:03:09;;;;;;;2.37;1.60;;;25.10;53.30;;;;;;6122272;23;20420;-83
2021/08/02 14:19:23;;;;;;;1.57;1.47;;;25.10;52.80;;;;;;6054239;23;20371;-82
2021/08/02 14:21:58;;;;;;;4.37;1.50;;;25.10;52.80;;;;;;6032690;23;20399;-81
2021/08/02 14:24:25;;;;;;;1.37;1.27;;;25.10;52.70;;;;;;6031921;23;20397;-81
2021/08/02 14:26:51;;;;;;;1.77;1.40;;;25.10;52.60;;;;;;6031672;23;20420;-81
2021/08/02 14:29:26;;;;;;;1.90;1.70;;;25.10;52.40;;;;;;6033378;23;20736;-82
2021/08/02 14:32:46;;;;;;;2.00;1.53;;;25.10;52.40;;;;;;6031521;23;20439;-81
2021/08/02 14:38:34;;;;;;;3.90;1.37;;;25.10;52.10;;;;;;6082292;23;20374;-82
2021/08/02 14:41:01;;;;;;;1.40;1.30;;;25.00;52.10;;;;;;6057858;23;20890;-83
2021/08/02 14:43:29;;;;;;;1.60;1.43;;;25.00;52.20;;;;;;6058296;23;20386;-81
2021/08/02 14:45:58;;;;;;;2.23;1.30;;;25.10;52.30;;;;;;6105917;23;20417;-82
2021/08/02 14:48:27;;;;;;;2.60;1.60;;;25.10;52.30;;;;;;6118164;23;20389;-82
2021/08/02 14:51:16;;;;;;;1.60;1.37;;;25.10;52.30;;;;;;6098028;23;20388;-81
2021/08/02 14:53:54;;;;;;;1.97;1.47;;;25.10;52.60;;;;;;6242243;23;20441;-81
2021/08/02 14:56:22;;;;;;;2.00;1.20;;;25.10;51.80;;;;;;6197252;23;20472;-81
2021/08/02 14:59:01;;;;;;;1.63;1.40;;;25.10;51.60;;;;;;6267321;23;20445;-81
2021/08/02 15:04:48;;;;;;;5.83;1.60;;;25.10;51.50;;;;;;6269259;23;20353;-81
2021/08/02 15:07:36;;;;;;;1.60;1.37;;;25.10;51.00;;;;;;6266343;23;20412;-81
2021/08/02 15:16:59;;;;;;;1.93;1.40;;;24.90;50.70;;;;;;6178128;23;20452;-81
2021/08/02 15:19:39;;;;;;;4.83;1.67;;;24.80;51.00;;;;;;6151793;23;20453;-80
2021/08/02 15:25:33;;;;;;;2.67;1.63;;;24.80;51.40;;;;;;6177564;23;20448;-82
2021/08/02 15:28:30;;;;;;;4.70;1.30;;;24.70;51.20;;;;;;6178098;23;20387;-81
2021/08/02 15:30:59;;;;;;;2.67;1.30;;;24.60;51.30;;;;;;6138942;23;20380;-81
2021/08/02 15:33:29;;;;;;;3.17;1.40;;;24.50;51.50;;;;;;6152747;23;20400;-81
2021/08/02 15:36:10;;;;;;;7.63;1.93;;;24.50;51.80;;;;;;6178938;23;20380;-81
2021/08/02 15:38:57;;;;;;;3.80;1.93;;;24.40;52.10;;;;;;6153030;23;20422;-83
2021/08/02 16:32:20;;;;;;;3.00;1.53;;;24.60;52.60;;;;;;6224112;23;20416;-82
2021/08/02 16:34:46;;;;;;;1.97;1.70;;;24.60;52.70;;;;;;6262463;23;20398;-82
2021/08/02 16:37:13;;;;;;;3.23;1.70;;;24.60;52.70;;;;;;6261684;23;20381;-82
2021/08/02 16:39:52;;;;;;;2.40;1.57;;;24.70;52.90;;;;;;6262753;23;20374;-83
2021/08/02 16:42:24;;;;;;;3.87;1.73;;;24.70;52.90;;;;;;6237700;23;20377;-82
2021/08/02 16:45:12;;;;;;;1.90;1.30;;;24.70;53.10;;;;;;6265616;23;20377;-83
2021/08/02 16:47:49;;;;;;;2.93;1.70;;;24.70;53.00;;;;;;6211432;23;20508;-83
2021/08/02 16:50:16;;;;;;;3.50;2.10;;;24.70;53.10;;;;;;6238193;23;20376;-82
2021/08/02 16:52:42;;;;;;;2.70;1.70;;;24.70;53.10;;;;;;6264363;23;20377;-82
2021/08/02 16:59:00;;;;;;;2.40;1.73;;;24.70;53.30;;;;;;6267971;23;20368;-87
2021/08/02 17:05:39;;;;;;;2.07;1.87;;;24.70;53.30;;;;;;6142901;23;20388;-86
2021/08/02 17:15:10;;;;;;;;;;;;;;;;;;;;;
2021/08/02 17:17:39;;;;;;;3.67;1.70;;;24.60;53.60;;;;;;6087857;23;20359;-83
2021/08/02 17:20:12;;;;;;;2.20;1.70;;;24.60;53.50;;;;;;6065739;23;20379;-83
2021/08/02 17:22:43;;;;;;;3.10;1.67;;;24.60;53.60;;;;;;6065149;23;20374;-81
2021/08/02 17:25:13;;;;;;;1.60;1.50;;;24.60;53.50;;;;;;6041394;23;20721;-82
2021/08/02 17:27:51;;;;;;;1.90;1.53;;;24.60;53.50;;;;;;6063825;23;20437;-82
2021/08/02 17:30:18;;;;;;;2.37;1.83;;;24.70;53.50;;;;;;6065472;23;20363;-79
2021/08/02 17:33:17;;;;;;;2.37;1.50;;;24.60;53.50;;;;;;6067028;23;20411;-80
2021/08/02 17:35:46;;;;;;;2.10;1.67;;;24.70;53.50;;;;;;6136202;23;20396;-81
2021/08/02 17:38:21;;;;;;;2.43;1.30;;;24.60;53.60;;;;;;6146915;23;20388;-81
2021/08/02 17:41:03;;;;;;;2.07;1.47;;;24.60;53.60;;;;;;6147073;23;20384;-81
2021/08/02 17:44:24;;;;;;;;;;;;;;;;;;;;;
2021/08/02 17:57:05;;;;;;;1.57;1.40;;;24.60;53.90;;;;;;6149005;23;20356;-79
2021/08/02 18:00:31;;;;;;;4.17;1.70;;;24.50;53.90;;;;;;6100886;23;20392;-79
2021/08/02 18:06:29;;;;;;;3.10;1.50;;;24.60;54.00;;;;;;6032106;23;20817;-80
2021/08/02 18:09:04;;;;;;;2.80;1.63;;;24.50;53.90;;;;;;5988004;23;20391;-80
2021/08/02 18:25:38;;;;;;;2.50;1.60;;;24.50;54.10;;;;;;5947141;24;20408;-81
2021/08/02 18:28:48;;;;;;;1.57;1.47;;;24.50;54.10;;;;;;5924972;24;20474;-83
2021/08/02 18:31:55;;;;;;;2.37;1.67;;;24.50;54.10;;;;;;5947781;24;20411;-81
2021/08/02 18:34:24;;;;;;;1.50;1.40;;;24.40;54.20;;;;;;5924059;24;20386;-80
2021/08/02 18:37:01;;;;;;;3.27;1.50;;;24.40;54.30;;;;;;5948674;24;20383;-81
2021/08/02 18:39:43;;;;;;;2.40;1.43;;;24.40;54.20;;;;;;6015722;23;20387;-80
2021/08/02 18:42:15;;;;;;;1.87;1.30;;;24.50;54.40;;;;;;6010354;23;20411;-80
2021/08/02 18:44:47;;;;;;;1.30;1.20;;;24.40;54.40;;;;;;6034511;23;20425;-80
2021/08/02 18:47:16;;;;;;;1.57;1.37;;;24.40;54.50;;;;;;6011395;23;20427;-80
2021/08/02 18:49:42;;;;;;;4.27;1.30;;;24.40;54.40;;;;;;6011716;23;20409;-80
2021/08/02 18:52:25;;;;;;;1.60;1.50;;;24.40;54.60;;;;;;6010890;23;20385;-80
2021/08/02 18:58:21;;;;;;;2.40;1.50;;;24.40;54.50;;;;;;6063379;23;20378;-80
2021/08/02 19:01:27;;;;;;;2.00;1.67;;;24.40;54.70;;;;;;6063113;23;20394;-80
2021/08/02 19:03:59;;;;;;;1.60;1.30;;;24.40;54.90;;;;;;6057888;23;20484;-80
2021/08/02 19:06:53;;;;;;;4.83;1.70;;;24.30;55.00;;;;;;6066771;23;20423;-80
2021/08/02 19:09:35;;;;;;;2.30;1.63;;;24.30;55.20;;;;;;6091235;23;20446;-80
2021/08/02 19:12:16;;;;;;;3.30;1.53;;;24.20;55.50;;;;;;6089139;23;20386;-80
2021/08/02 19:14:46;;;;;;;3.17;1.70;;;24.20;55.60;;;;;;6065616;23;20382;-80
2021/08/02 19:17:19;;;;;;;2.50;1.73;;;24.20;55.50;;;;;;6065517;23;20442;-80
2021/08/02 19:19:48;;;;;;;2.77;1.80;;;24.20;55.60;;;;;;6065829;23;20382;-80
2021/08/02 19:22:25;;;;;;;1.83;1.57;;;24.20;55.50;;;;;;6065187;23;20390;-80
2021/08/02 19:28:34;;;;;;;2.00;1.60;;;24.20;55.40;;;;;;6088347;23;20375;-80
2021/08/02 19:31:00;;;;;;;4.30;2.40;;;24.10;55.40;;;;;;6089213;23;20407;-80
2021/08/02 19:33:26;;;;;;;1.77;1.60;;;24.20;55.50;;;;;;6066036;23;20394;-79
2021/08/02 19:35:54;;;;;;;1.70;1.60;;;24.20;55.50;;;;;;6088512;23;20390;-80
2021/08/02 19:38:27;;;;;;;2.07;1.87;;;24.20;55.50;;;;;;6065021;23;20162;-80
2021/08/02 19:41:03;;;;;;;2.53;1.67;;;24.20;55.40;;;;;;6088325;23;20426;-80
2021/08/02 19:58:00;;;;;;;2.23;1.63;;;24.20;55.50;;;;;;6002837;23;20510;-79
2021/08/02 20:03:58;;;;;;;2.33;1.50;;;24.10;55.60;;;;;;6095150;23;20397;-79
2021/08/02 20:06:25;;;;;;;2.20;1.97;;;24.00;55.50;;;;;;6115632;23;20445;-79
2021/08/02 20:08:56;;;;;;;1.80;1.30;;;24.10;55.60;;;;;;6115617;23;20884;-79
2021/08/02 20:11:25;;;;;;;2.30;2.10;;;24.10;55.60;;;;;;6115243;23;20385;-79
2021/08/02 20:13:59;;;;;;;2.63;1.50;;;24.10;55.70;;;;;;6091919;23;20396;-79
2021/08/02 20:16:27;;;;;;;2.07;1.87;;;24.10;55.60;;;;;;6091453;23;20386;-79
2021/08/02 20:18:59;;;;;;;1.87;1.60;;;24.10;55.60;;;;;;6116387;23;20840;-80
2021/08/02 20:21:35;;;;;;;1.80;1.60;;;24.10;55.60;;;;;;6115759;23;20365;-80
2021/08/02 20:30:50;;;;;;;;;;;;;;;;;;;;;
2021/08/02 20:33:17;;;;;;;2.00;1.80;;;24.00;56.10;;;;;;6270336;23;20377;-80
2021/08/02 20:35:59;;;;;;;2.03;1.57;;;24.00;55.60;;;;;;6270228;23;20381;-80
2021/08/02 20:38:32;;;;;;;2.53;1.50;;;24.00;55.60;;;;;;6267901;23;20377;-81
2021/08/02 20:41:11;;;;;;;1.90;1.60;;;24.00;55.70;;;;;;6269640;23;20365;-80
2021/08/02 20:50:02;;;;;;;1.70;1.30;;;24.00;55.50;;;;;;6269874;23;20349;-80
2021/08/02 20:52:32;;;;;;;2.00;1.50;;;24.00;55.50;;;;;;6243075;23;20410;-80
2021/08/02 20:55:31;;;;;;;1.80;1.40;;;24.00;55.40;;;;;;6269090;23;20385;-80
2021/08/02 21:11:01;;;;;;;2.40;1.63;;;24.00;55.70;;;;;;6146215;23;20412;-80
2021/08/02 21:13:46;;;;;;;1.70;1.60;;;23.90;55.80;;;;;;6121852;23;20381;-79
2021/08/02 21:16:24;;;;;;;2.23;1.60;;;23.90;55.70;;;;;;6146145;23;20396;-80
2021/08/02 21:19:01;;;;;;;4.33;1.73;;;23.90;55.70;;;;;;6146081;23;20441;-79
2021/08/02 21:21:34;;;;;;;2.30;1.63;;;23.90;55.70;;;;;;6118931;23;20385;-79
2021/08/02 21:24:35;;;;;;;2.50;1.83;;;23.90;55.60;;;;;;6146750;23;20792;-79
2021/08/02 21:30:24;;;;;;;3.77;1.60;;;24.00;55.50;;;;;;6147865;23;20412;-79
2021/08/02 21:32:58;;;;;;;1.93;1.40;;;23.90;55.40;;;;;;6147737;23;20404;-79
2021/08/02 21:35:27;;;;;;;1.93;1.53;;;24.00;55.50;;;;;;6123382;23;20468;-79
2021/08/02 21:37:55;;;;;;;1.63;1.40;;;24.00;55.40;;;;;;6147218;23;20452;-80
2021/08/02 21:40:21;;;;;;;2.40;1.47;;;24.00;55.30;;;;;;6123050;23;20375;-78
2021/08/02 21:43:15;;;;;;;;;;;;;;;;;;;;;
2021/08/02 21:45:53;;;;;;;3.87;1.97;;;24.10;55.30;;;;;;6269270;23;20380;-80
2021/08/02 21:48:19;;;;;;;2.53;1.60;;;24.10;55.30;;;;;;6267989;23;20397;-81
2021/08/02 21:50:49;;;;;;;1.80;1.40;;;24.00;55.20;;;;;;6268311;23;20373;-80
2021/08/02 21:53:15;;;;;;;3.00;2.20;;;24.10;55.30;;;;;;6242963;23;20403;-80
2021/08/02 21:55:51;;;;;;;1.60;1.50;;;24.10;55.20;;;;;;6267515;23;20365;-80
2021/08/02 22:05:14;;;;;;;1.60;1.30;;;24.00;55.10;;;;;;6270488;23;20419;-83
2021/08/02 22:07:42;;;;;;;1.40;1.30;;;24.00;55.30;;;;;;6265947;23;20420;-83
2021/08/02 22:13:42;;;;;;;2.73;1.60;;;24.10;55.00;;;;;;6267664;23;20407;-82
2021/08/02 22:16:19;;;;;;;2.00;1.30;;;24.10;55.00;;;;;;6240217;23;20384;-82
2021/08/02 22:18:46;;;;;;;1.80;1.50;;;24.10;54.90;;;;;;6267374;23;20365;-82
2021/08/02 22:21:14;;;;;;;2.87;1.50;;;24.20;54.90;;;;;;6266686;23;20373;-82
2021/08/02 22:23:40;;;;;;;2.37;1.77;;;24.20;54.80;;;;;;6267131;23;20377;-82
2021/08/02 22:26:09;;;;;;;1.80;1.30;;;24.20;54.80;;;;;;6242272;23;20431;-80
2021/08/02 22:28:45;;;;;;;;;;;;;;;;;;;;;
2021/08/02 22:34:33;;;;;;;2.10;1.40;;;24.30;54.60;;;;;;6207118;23;20421;-80
2021/08/02 22:37:06;;;;;;;1.70;1.60;;;24.30;54.60;;;;;;6182045;23;20383;-79
2021/08/02 22:39:39;;;;;;;1.80;1.67;;;24.30;54.60;;;;;;6207578;23;20208;-79
2021/08/02 22:42:17;;;;;;;3.03;1.70;;;24.30;54.50;;;;;;6207288;23;20379;-79
2021/08/02 22:45:04;;;;;;;2.40;1.40;;;24.40;54.50;;;;;;6183006;23;20782;-79
2021/08/02 22:47:33;;;;;;;1.60;1.40;;;24.40;54.50;;;;;;6182994;23;20483;-79
2021/08/02 22:50:02;;;;;;;2.30;1.80;;;24.30;54.50;;;;;;6182094;23;20446;-80
2021/08/02 22:52:35;;;;;;;3.63;1.77;;;24.30;54.60;;;;;;6182154;23;20387;-80
2021/08/02 22:55:09;;;;;;;1.73;1.43;;;24.30;54.60;;;;;;6182463;23;20397;-80
2021/08/02 22:57:42;;;;;;;2.77;1.67;;;24.30;54.60;;;;;;6182523;23;20411;-80
2021/08/02 23:00:17;;;;;;;2.37;1.50;;;24.30;54.50;;;;;;6206664;23;20382;-80
2021/08/02 23:02:48;;;;;;;2.30;2.10;;;24.30;54.50;;;;;;6182667;23;20414;-80
2021/08/02 23:05:24;;;;;;;3.27;1.87;;;24.20;54.50;;;;;;6206334;23;20744;-80
2021/08/02 23:08:03;;;;;;;1.50;1.40;;;24.20;54.60;;;;;;6223937;23;20413;-80
2021/08/02 23:10:35;;;;;;;2.57;1.50;;;24.20;54.60;;;;;;6268224;23;20385;-80
2021/08/02 23:13:01;;;;;;;4.77;1.80;;;24.20;54.50;;;;;;6270352;23;20377;-79
2021/08/02 23:15:29;;;;;;;2.33;1.40;;;24.20;54.60;;;;;;6243122;23;20468;-79
2021/08/02 23:17:56;;;;;;;2.10;1.90;;;24.20;54.60;;;;;;6268557;23;20445;-80
2021/08/02 23:20:51;;;;;;;2.53;2.00;;;24.20;54.60;;;;;;6268499;23;20407;-79
2021/08/02 23:23:29;;;;;;;1.60;1.40;;;24.20;54.50;;;;;;6267985;23;20378;-79
2021/08/02 23:26:33;;;;;;;2.10;1.90;;;24.20;54.40;;;;;;6268626;23;20382;-79
2021/08/02 23:29:03;;;;;;;3.90;2.23;;;24.30;54.40;;;;;;6269400;23;20369;-80
2021/08/02 23:31:44;;;;;;;1.97;1.50;;;24.30;54.40;;;;;;6268478;23;20373;-80
2021/08/02 23:34:11;;;;;;;1.60;1.50;;;24.30;54.30;;;;;;6269086;23;20403;-79
2021/08/02 23:36:39;;;;;;;2.83;1.90;;;24.30;54.20;;;;;;6267410;23;20381;-80
2021/08/02 23:39:05;;;;;;;1.80;1.70;;;24.30;54.20;;;;;;6269487;23;20442;-80